sensor_id;sensor_type;location;lat;lon;timestamp;pressure;altitude;pressure_sealevel;temperature
9798;BMP180;4938;57.492;12.652;2022-07-18T00:02:07;83693.13;;;-136.68
9798;BMP180;4938;57.492;12.652;2022-07-18T00:04:54;81804.47;;;-136.68
9798;BMP180;4938;57.492;12.652;2022-07-18T00:07:43;81800.44;;;-136.68
9798;BMP180;4938;57.492;12.652;2022-07-18T00:10:30;82160.66;;;-136.68
9798;BMP180;4938;57.492;12.652;2022-07-18T00:13:17;81832.81;;;-136.68
9798;BMP180;4938;57.492;12.652;2022-07-18T00:16:04;81788.28;;;-136.68
9798;BMP180;4938;57.492;12.652;2022-07-18T00:18:51;81776.16;;;-136.68
9798;BMP180;4938;57.492;12.652;2022-07-18T00:21:40;81788.28;;;-136.68
9798;BMP180;4938;57.492;12.652;2022-07-18T00:24:28;81788.28;;;-136.68
9798;BMP180;4938;57.492;12.652;2022-07-18T00:27:17;81806.50;;;-136.68
9798;BMP180;4938;57.492;12.652;2022-07-18T00:30:05;81806.50;;;-136.68
9798;BMP180;4938;57.492;12.652;2022-07-18T00:32:52;81802.47;;;-136.68
9798;BMP180;4938;57.492;12.652;2022-07-18T00:35:39;81814.59;;;-136.68
9798;BMP180;4938;57.492;12.652;2022-07-18T00:38:26;81802.47;;;-136.68
9798;BMP180;4938;57.492;12.652;2022-07-18T00:41:15;81800.44;;;-136.68
9798;BMP180;4938;57.492;12.652;2022-07-18T00:44:03;81800.44;;;-136.68
9798;BMP180;4938;57.492;12.652;2022-07-18T00:46:51;81784.25;;;-136.68
9798;BMP180;4938;57.492;12.652;2022-07-18T00:49:38;81796.38;;;-136.68
9798;BMP180;4938;57.492;12.652;2022-07-18T00:52:25;81816.63;;;-136.68
9798;BMP180;4938;57.492;12.652;2022-07-18T00:55:12;81788.28;;;-136.68
9798;BMP180;4938;57.492;12.652;2022-07-18T00:58:01;81804.47;;;-136.68
9798;BMP180;4938;57.492;12.652;2022-07-18T01:00:48;81806.50;;;-136.68
9798;BMP180;4938;57.492;12.652;2022-07-18T01:04:07;81788.28;;;-136.68
9798;BMP180;4938;57.492;12.652;2022-07-18T01:06:54;81808.53;;;-136.68
9798;BMP180;4938;57.492;12.652;2022-07-18T01:09:41;81812.56;;;-136.68
9798;BMP180;4938;57.492;12.652;2022-07-18T01:12:28;81818.66;;;-136.68
9798;BMP180;4938;57.492;12.652;2022-07-18T01:15:16;81796.38;;;-136.68
9798;BMP180;4938;57.492;12.652;2022-07-18T01:18:04;81790.31;;;-136.68
9798;BMP180;4938;57.492;12.652;2022-07-18T01:20:52;81842.94;;;-136.68
9798;BMP180;4938;57.492;12.652;2022-07-18T01:23:39;81820.69;;;-136.68
9798;BMP180;4938;57.492;12.652;2022-07-18T01:26:27;81818.66;;;-136.68
9798;BMP180;4938;57.492;12.652;2022-07-18T01:29:13;81812.56;;;-136.68
9798;BMP180;4938;57.492;12.652;2022-07-18T01:32:04;81828.75;;;-136.68
9798;BMP180;4938;57.492;12.652;2022-07-18T01:34:51;81800.44;;;-136.68
9798;BMP180;4938;57.492;12.652;2022-07-18T01:37:39;81840.91;;;-136.68
9798;BMP180;4938;57.492;12.652;2022-07-18T01:40:27;81838.88;;;-136.68
9798;BMP180;4938;57.492;12.652;2022-07-18T01:43:14;81816.63;;;-136.68
9798;BMP180;4938;57.492;12.652;2022-07-18T01:46:01;81802.47;;;-136.68
9798;BMP180;4938;57.492;12.652;2022-07-18T01:48:48;81832.81;;;-136.68
9798;BMP180;4938;57.492;12.652;2022-07-18T01:51:35;81808.53;;;-136.68
9798;BMP180;4938;57.492;12.652;2022-07-18T01:54:25;81810.56;;;-136.68
9798;BMP180;4938;57.492;12.652;2022-07-18T01:57:12;81820.69;;;-136.68
9798;BMP180;4938;57.492;12.652;2022-07-18T01:59:59;81820.69;;;-136.68
9798;BMP180;4938;57.492;12.652;2022-07-18T02:02:46;81820.69;;;-136.68
9798;BMP180;4938;57.492;12.652;2022-07-18T02:05:33;81822.69;;;-136.68
9798;BMP180;4938;57.492;12.652;2022-07-18T02:08:20;81818.66;;;-136.68
9798;BMP180;4938;57.492;12.652;2022-07-18T02:11:09;81836.88;;;-136.68
9798;BMP180;4938;57.492;12.652;2022-07-18T02:13:56;81846.97;;;-136.68
9798;BMP180;4938;57.492;12.652;2022-07-18T02:16:43;81820.69;;;-136.68
9798;BMP180;4938;57.492;12.652;2022-07-18T02:19:30;81824.72;;;-136.68
9798;BMP180;4938;57.492;12.652;2022-07-18T02:22:17;81836.88;;;-136.68
9798;BMP180;4938;57.492;12.652;2022-07-18T02:25:05;81828.75;;;-136.68
9798;BMP180;4938;57.492;12.652;2022-07-18T02:27:53;81838.88;;;-136.68
9798;BMP180;4938;57.492;12.652;2022-07-18T02:30:40;81832.81;;;-136.68
9798;BMP180;4938;57.492;12.652;2022-07-18T02:33:27;81867.22;;;-136.68
9798;BMP180;4938;57.492;12.652;2022-07-18T02:36:14;81812.56;;;-136.68
9798;BMP180;4938;57.492;12.652;2022-07-18T02:39:01;81816.63;;;-136.68
9798;BMP180;4938;57.492;12.652;2022-07-18T02:41:48;81853.06;;;-136.68
9798;BMP180;4938;57.492;12.652;2022-07-18T02:44:37;81849.00;;;-136.68
9798;BMP180;4938;57.492;12.652;2022-07-18T02:47:24;81836.88;;;-136.68
9798;BMP180;4938;57.492;12.652;2022-07-18T02:50:11;81826.75;;;-136.68
9798;BMP180;4938;57.492;12.652;2022-07-18T02:52:58;81838.88;;;-136.68
9798;BMP180;4938;57.492;12.652;2022-07-18T02:55:45;81834.84;;;-136.68
9798;BMP180;4938;57.492;12.652;2022-07-18T02:58:32;81818.66;;;-136.68
9798;BMP180;4938;57.492;12.652;2022-07-18T03:01:20;81836.88;;;-136.68
9798;BMP180;4938;57.492;12.652;2022-07-18T03:04:07;81844.97;;;-136.68
9798;BMP180;4938;57.492;12.652;2022-07-18T03:06:54;81824.72;;;-136.68
9798;BMP180;4938;57.492;12.652;2022-07-18T03:09:41;81788.28;;;-136.68
9798;BMP180;4938;57.492;12.652;2022-07-18T03:12:28;81844.97;;;-136.68
9798;BMP180;4938;57.492;12.652;2022-07-18T03:15:15;81804.47;;;-136.68
9798;BMP180;4938;57.492;12.652;2022-07-18T03:18:04;81632.47;;;-136.68
9798;BMP180;4938;57.492;12.652;2022-07-18T03:20:51;81788.28;;;-136.68
9798;BMP180;4938;57.492;12.652;2022-07-18T03:23:38;81832.81;;;-136.68
9798;BMP180;4938;57.492;12.652;2022-07-18T03:26:25;81846.97;;;-136.68
9798;BMP180;4938;57.492;12.652;2022-07-18T03:29:12;81849.00;;;-136.68
9798;BMP180;4938;57.492;12.652;2022-07-18T03:31:59;81790.31;;;-136.68
9798;BMP180;4938;57.492;12.652;2022-07-18T03:34:47;81836.88;;;-136.68
9798;BMP180;4938;57.492;12.652;2022-07-18T03:37:34;81800.44;;;-136.68
9798;BMP180;4938;57.492;12.652;2022-07-18T03:40:21;81846.97;;;-136.68
9798;BMP180;4938;57.492;12.652;2022-07-18T03:43:08;81859.13;;;-136.68
9798;BMP180;4938;57.492;12.652;2022-07-18T03:45:55;81844.97;;;-136.68
9798;BMP180;4938;57.492;12.652;2022-07-18T03:48:42;81828.75;;;-136.68
9798;BMP180;4938;57.492;12.652;2022-07-18T03:51:31;81842.94;;;-136.68
9798;BMP180;4938;57.492;12.652;2022-07-18T03:54:18;81832.81;;;-136.68
9798;BMP180;4938;57.492;12.652;2022-07-18T03:57:04;81820.69;;;-136.68
9798;BMP180;4938;57.492;12.652;2022-07-18T03:59:51;81824.72;;;-136.68
9798;BMP180;4938;57.492;12.652;2022-07-18T04:02:39;81824.72;;;-136.68
9798;BMP180;4938;57.492;12.652;2022-07-18T04:05:26;81768.06;;;-136.68
9798;BMP180;4938;57.492;12.652;2022-07-18T04:08:14;81816.63;;;-136.68
9798;BMP180;4938;57.492;12.652;2022-07-18T04:11:01;81768.06;;;-136.68
9798;BMP180;4938;57.492;12.652;2022-07-18T04:13:48;81810.56;;;-136.68
9798;BMP180;4938;57.492;12.652;2022-07-18T04:16:35;81517.16;;;-136.68
9798;BMP180;4938;57.492;12.652;2022-07-18T04:19:22;81642.59;;;-136.68
9798;BMP180;4938;57.492;12.652;2022-07-18T04:22:10;81768.06;;;-136.68
9798;BMP180;4938;57.492;12.652;2022-07-18T04:24:59;81778.19;;;-136.68
9798;BMP180;4938;57.492;12.652;2022-07-18T04:27:47;81796.38;;;-136.68
9798;BMP180;4938;57.492;12.652;2022-07-18T04:30:34;81804.47;;;-136.68
9798;BMP180;4938;57.492;12.652;2022-07-18T04:33:21;81731.63;;;-136.68
9798;BMP180;4938;57.492;12.652;2022-07-18T04:36:08;81644.63;;;-136.68
9798;BMP180;4938;57.492;12.652;2022-07-18T04:38:55;81703.31;;;-136.68
9798;BMP180;4938;57.492;12.652;2022-07-18T04:41:44;81739.72;;;-136.68
9798;BMP180;4938;57.492;12.652;2022-07-18T04:44:31;81709.38;;;-136.68
9798;BMP180;4938;57.492;12.652;2022-07-18T04:47:18;81468.59;;;-136.68
9798;BMP180;4938;57.492;12.652;2022-07-18T04:50:06;82071.63;;;-136.68
9798;BMP180;4938;57.492;12.652;2022-07-18T04:52:53;81351.22;;;-136.68
9798;BMP180;4938;57.492;12.652;2022-07-18T04:55:40;81415.97;;;-136.68
9798;BMP180;4938;57.492;12.652;2022-07-18T04:58:28;81341.13;;;-136.68
9798;BMP180;4938;57.492;12.652;2022-07-18T05:01:15;81337.06;;;-136.68
9798;BMP180;4938;57.492;12.652;2022-07-18T05:04:04;81205.56;;;-136.68
9798;BMP180;4938;57.492;12.652;2022-07-18T05:06:51;81284.47;;;-136.68
9798;BMP180;4938;57.492;12.652;2022-07-18T05:09:38;81252.09;;;-136.68
9798;BMP180;4938;57.492;12.652;2022-07-18T05:12:25;81266.25;;;-136.68
9798;BMP180;4938;57.492;12.652;2022-07-18T05:15:14;81197.47;;;-136.68
9798;BMP180;4938;57.492;12.652;2022-07-18T05:18:02;81171.16;;;-136.68
9798;BMP180;4938;57.492;12.652;2022-07-18T05:20:49;81157.00;;;-136.68
9798;BMP180;4938;57.492;12.652;2022-07-18T05:23:36;81211.63;;;-136.68
9798;BMP180;4938;57.492;12.652;2022-07-18T05:26:23;81231.84;;;-136.68
9798;BMP180;4938;57.492;12.652;2022-07-18T05:29:10;81203.53;;;-136.68
9798;BMP180;4938;57.492;12.652;2022-07-18T05:32:00;81246.03;;;-136.68
9798;BMP180;4938;57.492;12.652;2022-07-18T05:34:48;81235.91;;;-136.68
9798;BMP180;4938;57.492;12.652;2022-07-18T05:37:35;81233.88;;;-136.68
9798;BMP180;4938;57.492;12.652;2022-07-18T05:40:23;81280.41;;;-136.68
9798;BMP180;4938;57.492;12.652;2022-07-18T05:43:10;81288.50;;;-136.68
9798;BMP180;4938;57.492;12.652;2022-07-18T05:45:57;81296.59;;;-136.68
9798;BMP180;4938;57.492;12.652;2022-07-18T05:48:45;81258.16;;;-136.68
9798;BMP180;4938;57.492;12.652;2022-07-18T05:51:32;81280.41;;;-136.68
9798;BMP180;4938;57.492;12.652;2022-07-18T05:54:19;81201.50;;;-136.68
9798;BMP180;4938;57.492;12.652;2022-07-18T05:57:06;81197.47;;;-136.68
9798;BMP180;4938;57.492;12.652;2022-07-18T05:59:53;81201.50;;;-136.68
9798;BMP180;4938;57.492;12.652;2022-07-18T06:02:40;81193.41;;;-136.68
9798;BMP180;4938;57.492;12.652;2022-07-18T06:05:28;81223.78;;;-136.68
9798;BMP180;4938;57.492;12.652;2022-07-18T06:08:15;81193.41;;;-136.68
9798;BMP180;4938;57.492;12.652;2022-07-18T06:11:02;81244.00;;;-136.68
9798;BMP180;4938;57.492;12.652;2022-07-18T06:13:52;81326.94;;;-136.68
9798;BMP180;4938;57.492;12.652;2022-07-18T06:16:39;81355.28;;;-136.68
9798;BMP180;4938;57.492;12.652;2022-07-18T06:19:27;81270.31;;;-136.68
9798;BMP180;4938;57.492;12.652;2022-07-18T06:22:15;81272.31;;;-136.68
9798;BMP180;4938;57.492;12.652;2022-07-18T06:25:02;81187.34;;;-136.68
9798;BMP180;4938;57.492;12.652;2022-07-18T06:27:50;81185.31;;;-136.68
9798;BMP180;4938;57.492;12.652;2022-07-18T06:30:37;81187.34;;;-136.68
9798;BMP180;4938;57.492;12.652;2022-07-18T06:33:24;81221.75;;;-136.68
9798;BMP180;4938;57.492;12.652;2022-07-18T06:36:11;81047.75;;;-136.68
9798;BMP180;4938;57.492;12.652;2022-07-18T06:39:00;81211.63;;;-136.68
9798;BMP180;4938;57.492;12.652;2022-07-18T06:41:47;81225.78;;;-136.68
9798;BMP180;4938;57.492;12.652;2022-07-18T06:44:34;81203.53;;;-136.68
9798;BMP180;4938;57.492;12.652;2022-07-18T06:47:21;81195.44;;;-136.68
9798;BMP180;4938;57.492;12.652;2022-07-18T06:50:09;81229.84;;;-136.68
9798;BMP180;4938;57.492;12.652;2022-07-18T06:52:56;81239.94;;;-136.68
9798;BMP180;4938;57.492;12.652;2022-07-18T06:55:44;81233.88;;;-136.68
9798;BMP180;4938;57.492;12.652;2022-07-18T06:58:31;81270.31;;;-136.68
9798;BMP180;4938;57.492;12.652;2022-07-18T07:01:19;81239.94;;;-136.68
9798;BMP180;4938;57.492;12.652;2022-07-18T07:04:07;81250.06;;;-136.68
9798;BMP180;4938;57.492;12.652;2022-07-18T07:06:53;81221.75;;;-136.68
9798;BMP180;4938;57.492;12.652;2022-07-18T07:09:40;81266.25;;;-136.68
9798;BMP180;4938;57.492;12.652;2022-07-18T07:12:29;81254.13;;;-136.68
9798;BMP180;4938;57.492;12.652;2022-07-18T07:15:18;81217.69;;;-136.68
9798;BMP180;4938;57.492;12.652;2022-07-18T07:18:06;81282.44;;;-136.68
9798;BMP180;4938;57.492;12.652;2022-07-18T07:20:53;81270.31;;;-136.68
9798;BMP180;4938;57.492;12.652;2022-07-18T07:23:40;81363.38;;;-136.68
9798;BMP180;4938;57.492;12.652;2022-07-18T07:26:27;81278.41;;;-136.68
9798;BMP180;4938;57.492;12.652;2022-07-18T07:29:15;81221.75;;;-136.68
9798;BMP180;4938;57.492;12.652;2022-07-18T07:32:03;81316.84;;;-136.68
9798;BMP180;4938;57.492;12.652;2022-07-18T07:34:50;81225.78;;;-136.68
9798;BMP180;4938;57.492;12.652;2022-07-18T07:37:37;81241.97;;;-136.68
9798;BMP180;4938;57.492;12.652;2022-07-18T07:40:25;81229.84;;;-136.68
9798;BMP180;4938;57.492;12.652;2022-07-18T07:43:14;81191.41;;;-136.68
9798;BMP180;4938;57.492;12.652;2022-07-18T07:46:03;81221.75;;;-136.68
9798;BMP180;4938;57.492;12.652;2022-07-18T07:48:50;81231.84;;;-136.68
9798;BMP180;4938;57.492;12.652;2022-07-18T07:51:37;81213.66;;;-136.68
9798;BMP180;4938;57.492;12.652;2022-07-18T07:54:24;81213.66;;;-136.68
9798;BMP180;4938;57.492;12.652;2022-07-18T07:57:11;81248.03;;;-136.68
9798;BMP180;4938;57.492;12.652;2022-07-18T07:59:58;81209.59;;;-136.68
9798;BMP180;4938;57.492;12.652;2022-07-18T08:02:57;81039.66;;;-136.68
9798;BMP180;4938;57.492;12.652;2022-07-18T08:05:46;81223.78;;;-136.68
9798;BMP180;4938;57.492;12.652;2022-07-18T08:08:34;81284.47;;;-136.68
9798;BMP180;4938;57.492;12.652;2022-07-18T08:11:21;81296.59;;;-136.68
9798;BMP180;4938;57.492;12.652;2022-07-18T08:14:08;81316.84;;;-136.68
9798;BMP180;4938;57.492;12.652;2022-07-18T08:16:55;81288.50;;;-136.68
9798;BMP180;4938;57.492;12.652;2022-07-18T08:19:43;81292.56;;;-136.68
9798;BMP180;4938;57.492;12.652;2022-07-18T08:22:30;81361.34;;;-136.68
9798;BMP180;4938;57.492;12.652;2022-07-18T08:25:18;82769.91;;;-136.68
9798;BMP180;4938;57.492;12.652;2022-07-18T08:28:06;81310.75;;;-136.68
9798;BMP180;4938;57.492;12.652;2022-07-18T08:30:53;81298.63;;;-136.68
9798;BMP180;4938;57.492;12.652;2022-07-18T08:33:40;81177.22;;;-136.68
9798;BMP180;4938;57.492;12.652;2022-07-18T08:36:28;81120.59;;;-136.68
9798;BMP180;4938;57.492;12.652;2022-07-18T08:39:15;81124.63;;;-136.68
9798;BMP180;4938;57.492;12.652;2022-07-18T08:42:03;81152.97;;;-136.68
9798;BMP180;4938;57.492;12.652;2022-07-18T08:44:51;81169.13;;;-136.68
9798;BMP180;4938;57.492;12.652;2022-07-18T08:47:39;81177.22;;;-136.68
9798;BMP180;4938;57.492;12.652;2022-07-18T08:50:26;81199.50;;;-136.68
9798;BMP180;4938;57.492;12.652;2022-07-18T08:53:16;81256.13;;;-136.68
9798;BMP180;4938;57.492;12.652;2022-07-18T08:56:04;81282.44;;;-136.68
9798;BMP180;4938;57.492;12.652;2022-07-18T08:58:51;81258.16;;;-136.68
9798;BMP180;4938;57.492;12.652;2022-07-18T09:01:38;81203.53;;;-136.68
9798;BMP180;4938;57.492;12.652;2022-07-18T09:04:32;81280.41;;;-136.68
9798;BMP180;4938;57.492;12.652;2022-07-18T09:07:26;81100.34;;;-136.68
9798;BMP180;4938;57.492;12.652;2022-07-18T09:10:16;81229.84;;;-136.68
9798;BMP180;4938;57.492;12.652;2022-07-18T09:13:03;81136.78;;;-136.68
9798;BMP180;4938;57.492;12.652;2022-07-18T09:16:01;81128.69;;;-136.68
9798;BMP180;4938;57.492;12.652;2022-07-18T09:18:48;81116.53;;;-136.68
9798;BMP180;4938;57.492;12.652;2022-07-18T09:21:36;81092.25;;;-136.68
9798;BMP180;4938;57.492;12.652;2022-07-18T09:24:23;81076.06;;;-136.68
9798;BMP180;4938;57.492;12.652;2022-07-18T09:27:24;81053.81;;;-136.68
9798;BMP180;4938;57.492;12.652;2022-07-18T09:30:16;80778.69;;;-136.68
9798;BMP180;4938;57.492;12.652;2022-07-18T09:33:06;80972.91;;;-136.68
9798;BMP180;4938;57.492;12.652;2022-07-18T09:35:53;80946.59;;;-136.68
9798;BMP180;4938;57.492;12.652;2022-07-18T09:38:40;81011.34;;;-136.68
9798;BMP180;4938;57.492;12.652;2022-07-18T09:41:29;81065.97;;;-136.68
9798;BMP180;4938;57.492;12.652;2022-07-18T09:44:19;81063.94;;;-136.68
9798;BMP180;4938;57.492;12.652;2022-07-18T09:47:07;81072.03;;;-136.68
9798;BMP180;4938;57.492;12.652;2022-07-18T09:49:54;81072.03;;;-136.68
9798;BMP180;4938;57.492;12.652;2022-07-18T09:52:41;81082.16;;;-136.68
9798;BMP180;4938;57.492;12.652;2022-07-18T09:55:28;80972.91;;;-136.68
9798;BMP180;4938;57.492;12.652;2022-07-18T09:58:17;81063.94;;;-136.68
9798;BMP180;4938;57.492;12.652;2022-07-18T10:01:07;81059.88;;;-136.68
9798;BMP180;4938;57.492;12.652;2022-07-18T10:03:54;81094.28;;;-136.68
9798;BMP180;4938;57.492;12.652;2022-07-18T10:06:42;81051.81;;;-136.68
9798;BMP180;4938;57.492;12.652;2022-07-18T10:09:30;81072.03;;;-136.68
9798;BMP180;4938;57.492;12.652;2022-07-18T10:12:18;81124.63;;;-136.68
9798;BMP180;4938;57.492;12.652;2022-07-18T10:15:06;81072.03;;;-136.68
9798;BMP180;4938;57.492;12.652;2022-07-18T10:17:55;81067.97;;;-136.68
9798;BMP180;4938;57.492;12.652;2022-07-18T10:20:45;81072.03;;;-136.68
9798;BMP180;4938;57.492;12.652;2022-07-18T10:23:35;81092.25;;;-136.68
9798;BMP180;4938;57.492;12.652;2022-07-18T10:26:23;81102.38;;;-136.68
9798;BMP180;4938;57.492;12.652;2022-07-18T10:29:15;81092.25;;;-136.68
9798;BMP180;4938;57.492;12.652;2022-07-18T10:32:04;81108.44;;;-136.68
9798;BMP180;4938;57.492;12.652;2022-07-18T10:34:54;81076.06;;;-136.68
9798;BMP180;4938;57.492;12.652;2022-07-18T10:37:41;81130.69;;;-136.68
9798;BMP180;4938;57.492;12.652;2022-07-18T10:40:29;81104.41;;;-136.68
9798;BMP180;4938;57.492;12.652;2022-07-18T10:43:33;81094.28;;;-136.68
9798;BMP180;4938;57.492;12.652;2022-07-18T10:46:20;81100.34;;;-136.68
9798;BMP180;4938;57.492;12.652;2022-07-18T10:49:07;81112.50;;;-136.68
9798;BMP180;4938;57.492;12.652;2022-07-18T10:51:56;81057.88;;;-136.68
9798;BMP180;4938;57.492;12.652;2022-07-18T10:58:18;81039.66;;;-136.68
9798;BMP180;4938;57.492;12.652;2022-07-18T11:01:11;81049.78;;;-136.68
9798;BMP180;4938;57.492;12.652;2022-07-18T11:04:22;81049.78;;;-136.68
9798;BMP180;4938;57.492;12.652;2022-07-18T11:07:12;81031.56;;;-136.68
9798;BMP180;4938;57.492;12.652;2022-07-18T11:09:59;81037.63;;;-136.68
9798;BMP180;4938;57.492;12.652;2022-07-18T11:12:46;80995.16;;;-136.68
9798;BMP180;4938;57.492;12.652;2022-07-18T11:15:54;80974.94;;;-136.68
9798;BMP180;4938;57.492;12.652;2022-07-18T11:19:18;80966.84;;;-136.68
9798;BMP180;4938;57.492;12.652;2022-07-18T11:22:06;80902.09;;;-136.68
9798;BMP180;4938;57.492;12.652;2022-07-18T11:24:54;80898.06;;;-136.68
9798;BMP180;4938;57.492;12.652;2022-07-18T11:27:42;80936.50;;;-136.68
9798;BMP180;4938;57.492;12.652;2022-07-18T11:30:29;80960.75;;;-136.68
9798;BMP180;4938;57.492;12.652;2022-07-18T11:33:21;80942.56;;;-136.68
9798;BMP180;4938;57.492;12.652;2022-07-18T11:36:10;80904.13;;;-136.68
9798;BMP180;4938;57.492;12.652;2022-07-18T11:38:59;80914.22;;;-136.68
9798;BMP180;4938;57.492;12.652;2022-07-18T11:41:47;80900.06;;;-136.68
9798;BMP180;4938;57.492;12.652;2022-07-18T11:44:34;80885.91;;;-136.68
9798;BMP180;4938;57.492;12.652;2022-07-18T11:47:21;80861.63;;;-136.68
9798;BMP180;4938;57.492;12.652;2022-07-18T11:50:08;80877.81;;;-136.68
9798;BMP180;4938;57.492;12.652;2022-07-18T11:52:56;80871.75;;;-136.68
9798;BMP180;4938;57.492;12.652;2022-07-18T11:55:43;80885.91;;;-136.68
9798;BMP180;4938;57.492;12.652;2022-07-18T11:58:37;80896.03;;;-136.68
9798;BMP180;4938;57.492;12.652;2022-07-18T12:01:30;80881.88;;;-136.68
9798;BMP180;4938;57.492;12.652;2022-07-18T12:04:19;80898.06;;;-136.68
9798;BMP180;4938;57.492;12.652;2022-07-18T12:07:14;80871.75;;;-136.68
9798;BMP180;4938;57.492;12.652;2022-07-18T12:10:15;80883.88;;;-136.68
9798;BMP180;4938;57.492;12.652;2022-07-18T12:13:02;80851.53;;;-136.68
9798;BMP180;4938;57.492;12.652;2022-07-18T12:15:50;80368.09;;;-136.68
9798;BMP180;4938;57.492;12.652;2022-07-18T12:18:37;80861.63;;;-136.68
9798;BMP180;4938;57.492;12.652;2022-07-18T12:21:24;80829.28;;;-136.68
9798;BMP180;4938;57.492;12.652;2022-07-18T12:24:26;80904.13;;;-136.68
9798;BMP180;4938;57.492;12.652;2022-07-18T12:27:17;80819.16;;;-136.68
9798;BMP180;4938;57.492;12.652;2022-07-18T12:30:08;80845.47;;;-136.68
9798;BMP180;4938;57.492;12.652;2022-07-18T12:32:58;80885.91;;;-136.68
9798;BMP180;4938;57.492;12.652;2022-07-18T12:35:45;80900.06;;;-136.68
9798;BMP180;4938;57.492;12.652;2022-07-18T12:38:40;80942.56;;;-136.68
9798;BMP180;4938;57.492;12.652;2022-07-18T12:41:28;80944.56;;;-136.68
9798;BMP180;4938;57.492;12.652;2022-07-18T12:44:15;80962.78;;;-136.68
9798;BMP180;4938;57.492;12.652;2022-07-18T12:47:02;80924.34;;;-136.68
9798;BMP180;4938;57.492;12.652;2022-07-18T12:49:50;80837.38;;;-136.68
9798;BMP180;4938;57.492;12.652;2022-07-18T12:52:37;80863.66;;;-136.68
9798;BMP180;4938;57.492;12.652;2022-07-18T12:55:24;80916.25;;;-136.68
9798;BMP180;4938;57.492;12.652;2022-07-18T12:58:12;80954.69;;;-136.68
9798;BMP180;4938;57.492;12.652;2022-07-18T13:00:59;80954.69;;;-136.68
9798;BMP180;4938;57.492;12.652;2022-07-18T13:03:46;80946.59;;;-136.68
9798;BMP180;4938;57.492;12.652;2022-07-18T13:06:35;80938.50;;;-136.68
9798;BMP180;4938;57.492;12.652;2022-07-18T13:09:23;80946.59;;;-136.68
9798;BMP180;4938;57.492;12.652;2022-07-18T13:12:10;80926.38;;;-136.68
9798;BMP180;4938;57.492;12.652;2022-07-18T13:14:57;80950.66;;;-136.68
9798;BMP180;4938;57.492;12.652;2022-07-18T13:17:44;80946.59;;;-136.68
9798;BMP180;4938;57.492;12.652;2022-07-18T13:20:31;80946.59;;;-136.68
9798;BMP180;4938;57.492;12.652;2022-07-18T13:23:19;80962.78;;;-136.68
9798;BMP180;4938;57.492;12.652;2022-07-18T13:26:06;80989.09;;;-136.68
9798;BMP180;4938;57.492;12.652;2022-07-18T13:28:54;80952.66;;;-136.68
9798;BMP180;4938;57.492;12.652;2022-07-18T13:31:41;80926.38;;;-136.68
9798;BMP180;4938;57.492;12.652;2022-07-18T13:34:28;80918.28;;;-136.68
9798;BMP180;4938;57.492;12.652;2022-07-18T13:37:15;80978.97;;;-136.68
9798;BMP180;4938;57.492;12.652;2022-07-18T13:40:04;80976.94;;;-136.68
9798;BMP180;4938;57.492;12.652;2022-07-18T13:42:52;80950.66;;;-136.68
9798;BMP180;4938;57.492;12.652;2022-07-18T13:45:39;80902.09;;;-136.68
9798;BMP180;4938;57.492;12.652;2022-07-18T13:48:26;80922.31;;;-136.68
9798;BMP180;4938;57.492;12.652;2022-07-18T13:51:13;80908.16;;;-136.68
9798;BMP180;4938;57.492;12.652;2022-07-18T13:54:00;80891.97;;;-136.68
9798;BMP180;4938;57.492;12.652;2022-07-18T13:56:48;80910.19;;;-136.68
9798;BMP180;4938;57.492;12.652;2022-07-18T13:59:35;80962.78;;;-136.68
9798;BMP180;4938;57.492;12.652;2022-07-18T14:02:22;80954.69;;;-136.68
9798;BMP180;4938;57.492;12.652;2022-07-18T14:05:09;80924.34;;;-136.68
9798;BMP180;4938;57.492;12.652;2022-07-18T14:07:56;80881.88;;;-136.68
9798;BMP180;4938;57.492;12.652;2022-07-18T14:10:43;80898.06;;;-136.68
9798;BMP180;4938;57.492;12.652;2022-07-18T14:13:32;80881.88;;;-136.68
9798;BMP180;4938;57.492;12.652;2022-07-18T14:16:19;80428.75;;;-136.68
9798;BMP180;4938;57.492;12.652;2022-07-18T14:19:06;80881.88;;;-136.68
9798;BMP180;4938;57.492;12.652;2022-07-18T14:21:53;80855.56;;;-136.68
9798;BMP180;4938;57.492;12.652;2022-07-18T14:24:42;80841.41;;;-136.68
9798;BMP180;4938;57.492;12.652;2022-07-18T14:27:29;80894.00;;;-136.68
9798;BMP180;4938;57.492;12.652;2022-07-18T14:30:17;81023.47;;;-136.68
9798;BMP180;4938;57.492;12.652;2022-07-18T14:33:05;80952.66;;;-136.68
9798;BMP180;4938;57.492;12.652;2022-07-18T14:35:52;80934.47;;;-136.68
9798;BMP180;4938;57.492;12.652;2022-07-18T14:38:39;80898.06;;;-136.68
9798;BMP180;4938;57.492;12.652;2022-07-18T14:41:26;80958.75;;;-136.68
9798;BMP180;4938;57.492;12.652;2022-07-18T14:44:13;80972.91;;;-136.68
9798;BMP180;4938;57.492;12.652;2022-07-18T14:47:01;81015.38;;;-136.68
9798;BMP180;4938;57.492;12.652;2022-07-18T14:49:48;81051.81;;;-136.68
9798;BMP180;4938;57.492;12.652;2022-07-18T14:52:35;80991.09;;;-136.68
9798;BMP180;4938;57.492;12.652;2022-07-18T14:55:22;81023.47;;;-136.68
9798;BMP180;4938;57.492;12.652;2022-07-18T14:58:09;81039.66;;;-136.68
9798;BMP180;4938;57.492;12.652;2022-07-18T15:00:56;80926.38;;;-136.68
9798;BMP180;4938;57.492;12.652;2022-07-18T15:03:45;80918.28;;;-136.68
9798;BMP180;4938;57.492;12.652;2022-07-18T15:06:32;80970.88;;;-136.68
9798;BMP180;4938;57.492;12.652;2022-07-18T15:09:19;80946.59;;;-136.68
9798;BMP180;4938;57.492;12.652;2022-07-18T15:12:06;81019.44;;;-136.68
9798;BMP180;4938;57.492;12.652;2022-07-18T15:14:54;81013.38;;;-136.68
9798;BMP180;4938;57.492;12.652;2022-07-18T15:17:42;80954.69;;;-136.68
9798;BMP180;4938;57.492;12.652;2022-07-18T15:20:30;80995.16;;;-136.68
9798;BMP180;4938;57.492;12.652;2022-07-18T15:23:17;80991.09;;;-136.68
9798;BMP180;4938;57.492;12.652;2022-07-18T15:26:04;80924.34;;;-136.68
9798;BMP180;4938;57.492;12.652;2022-07-18T15:28:51;80902.09;;;-136.68
9798;BMP180;4938;57.492;12.652;2022-07-18T15:31:39;80934.47;;;-136.68
9798;BMP180;4938;57.492;12.652;2022-07-18T15:34:26;80970.88;;;-136.68
9798;BMP180;4938;57.492;12.652;2022-07-18T15:37:14;81001.22;;;-136.68
9798;BMP180;4938;57.492;12.652;2022-07-18T15:40:01;80954.69;;;-136.68
9798;BMP180;4938;57.492;12.652;2022-07-18T15:42:48;80968.84;;;-136.68
9798;BMP180;4938;57.492;12.652;2022-07-18T15:45:35;81019.44;;;-136.68
9798;BMP180;4938;57.492;12.652;2022-07-18T15:48:22;81007.28;;;-136.68
9798;BMP180;4938;57.492;12.652;2022-07-18T15:51:09;80983.03;;;-136.68
9798;BMP180;4938;57.492;12.652;2022-07-18T15:53:58;80970.88;;;-136.68
9798;BMP180;4938;57.492;12.652;2022-07-18T15:56:45;81003.25;;;-136.68
9798;BMP180;4938;57.492;12.652;2022-07-18T15:59:32;80978.97;;;-136.68